Time;durP1;ratioP1;P1;durP2;ratioP2;P2;SDS_P1;SDS_P2;PMS_P1;PMS_P2;Temp;Humidity;BMP_temperature;BMP_pressure;BME280_temperature;BME280_humidity;BME280_pressure;Samples;Min_cycle;Max_cycle;Signal;HPM_P1;HPM_P2
2022/07/04 00:00:06;;;;;;;12.27;3.90;;;;;;;12.65;80.78;101863.88;5075469;28;20111;-81
2022/07/04 00:02:31;;;;;;;11.23;3.75;;;;;;;12.60;81.11;101863.31;5073644;28;20037;-81
2022/07/04 00:04:57;;;;;;;13.95;4.07;;;;;;;12.63;80.75;101859.53;5069868;28;20028;-81
2022/07/04 00:07:22;;;;;;;11.75;3.70;;;;;;;12.63;81.02;101854.16;5090565;28;20477;-81
2022/07/04 00:09:47;;;;;;;13.35;4.32;;;;;;;12.61;81.22;101856.94;5074323;28;20024;-81
2022/07/04 00:12:13;;;;;;;10.00;3.90;;;;;;;12.61;81.06;101858.75;5069840;28;20407;-82
2022/07/04 00:14:38;;;;;;;10.60;4.15;;;;;;;12.58;81.08;101859.84;5077593;28;20031;-81
2022/07/04 00:17:04;;;;;;;10.10;3.80;;;;;;;12.57;81.16;101852.72;5062454;28;20352;-81
2022/07/04 00:19:29;;;;;;;11.85;4.25;;;;;;;12.54;81.37;101851.06;5079047;28;20027;-81
2022/07/04 00:21:54;;;;;;;15.23;4.22;;;;;;;12.61;81.62;101845.28;5070973;28;20460;-81
2022/07/04 00:24:20;;;;;;;13.48;4.07;;;;;;;12.64;81.27;101850.50;5072916;28;20024;-81
2022/07/04 00:26:45;;;;;;;13.43;3.78;;;;;;;12.65;81.65;101849.50;5079557;28;20027;-81
2022/07/04 00:29:10;;;;;;;14.93;3.80;;;;;;;12.68;81.37;101849.31;5068469;28;20111;-81
2022/07/04 00:31:36;;;;;;;14.68;3.78;;;;;;;12.66;81.17;101845.84;5071861;28;20024;-81
2022/07/04 00:34:01;;;;;;;12.50;3.58;;;;;;;12.63;81.50;101849.59;5079872;28;20032;-81
2022/07/04 00:36:27;;;;;;;8.68;3.42;;;;;;;12.66;81.14;101845.84;5075035;28;20028;-81
2022/07/04 00:38:52;;;;;;;10.63;3.63;;;;;;;12.68;80.58;101849.31;5074100;28;20040;-81
2022/07/04 00:41:18;;;;;;;12.90;4.05;;;;;;;12.71;80.91;101854.53;5073590;28;20115;-81
2022/07/04 00:43:43;;;;;;;11.82;3.67;;;;;;;12.73;80.41;101852.56;5070224;28;20059;-81
2022/07/04 00:46:08;;;;;;;9.80;3.90;;;;;;;12.71;80.65;101852.69;5077827;28;20040;-81
2022/07/04 00:48:34;;;;;;;14.02;4.03;;;;;;;12.61;80.42;101847.97;5073034;28;20016;-81
2022/07/04 00:50:59;;;;;;;11.85;3.88;;;;;;;12.59;80.33;101848.97;5080307;28;20032;-81
2022/07/04 00:53:25;;;;;;;10.98;4.28;;;;;;;12.55;80.68;101847.44;5074422;28;20032;-81
2022/07/04 00:55:51;;;;;;;14.38;4.45;;;;;;;12.47;80.80;101855.13;5072426;28;20032;-81
2022/07/04 00:58:21;;;;;;;9.95;3.88;;;;;;;12.45;80.96;101857.09;5081138;28;20040;-81
2022/07/04 01:00:47;;;;;;;8.55;3.70;;;;;;;12.40;80.97;101852.00;5072305;28;20115;-81
2022/07/04 01:03:12;;;;;;;11.45;4.13;;;;;;;12.35;81.13;101850.56;5074810;28;20051;-81
2022/07/04 01:05:38;;;;;;;11.85;4.05;;;;;;;12.28;80.83;101851.91;5073289;28;20043;-81
2022/07/04 01:08:04;;;;;;;14.15;4.20;;;;;;;12.27;81.06;101837.59;5070781;28;20033;-81
2022/07/04 01:10:30;;;;;;;11.98;3.72;;;;;;;12.24;81.08;101844.03;5080174;28;20168;-81
2022/07/04 01:12:56;;;;;;;12.85;4.05;;;;;;;12.23;80.81;101842.28;5074299;28;20021;-81
2022/07/04 01:15:21;;;;;;;10.60;3.88;;;;;;;12.20;80.66;101838.94;5075265;28;20067;-81
2022/07/04 01:17:47;;;;;;;12.02;3.90;;;;;;;12.17;81.01;101834.63;5069834;28;20059;-81
2022/07/04 01:20:13;;;;;;;14.48;4.43;;;;;;;12.17;80.97;101836.44;5076752;28;20055;-81
2022/07/04 01:22:38;;;;;;;12.30;4.10;;;;;;;12.16;80.76;101830.19;5074109;28;20032;-81
2022/07/04 01:25:04;;;;;;;13.95;4.22;;;;;;;12.15;81.03;101823.06;5075049;28;20027;-81
2022/07/04 01:27:29;;;;;;;15.10;4.05;;;;;;;12.19;81.06;101826.44;5074148;28;20035;-81
2022/07/04 01:29:55;;;;;;;12.15;3.95;;;;;;;12.16;80.82;101822.09;5074941;28;20111;-81
2022/07/04 01:32:20;;;;;;;12.85;4.40;;;;;;;12.17;80.74;101821.13;5074650;28;20035;-81
2022/07/04 01:34:45;;;;;;;12.30;4.45;;;;;;;12.14;80.71;101818.66;5068992;28;20024;-81
2022/07/04 01:37:11;;;;;;;13.98;4.50;;;;;;;12.08;81.25;101816.34;5077262;28;20040;-80
2022/07/04 01:39:36;;;;;;;11.52;3.95;;;;;;;12.03;81.39;101813.06;5077043;28;20020;-81
2022/07/04 01:42:02;;;;;;;11.25;3.95;;;;;;;12.00;81.63;101811.44;5076602;28;20110;-81
2022/07/04 01:44:28;;;;;;;14.20;3.85;;;;;;;11.98;82.00;101807.13;5068491;28;20058;-81
2022/07/04 01:46:53;;;;;;;10.57;3.92;;;;;;;11.94;81.95;101803.75;5077896;28;20441;-81
2022/07/04 01:49:19;;;;;;;12.45;4.22;;;;;;;11.96;82.03;101800.94;5074494;28;20025;-81
2022/07/04 01:51:48;;;;;;;11.13;4.15;;;;;;;11.96;81.41;101806.34;5075986;28;20027;-81
2022/07/04 01:54:14;;;;;;;12.05;3.97;;;;;;;11.95;81.43;101804.59;5074772;28;20142;-81
2022/07/04 01:56:40;;;;;;;13.90;4.40;;;;;;;11.91;81.56;101803.91;5067403;28;20083;-81
2022/07/04 01:59:05;;;;;;;14.20;4.50;;;;;;;11.86;81.80;101801.53;5070213;28;20506;-81
2022/07/04 02:01:30;;;;;;;14.13;4.32;;;;;;;11.82;82.11;101794.59;5074481;28;20102;-81
2022/07/04 02:04:03;;;;;;;12.48;4.78;;;;;;;11.78;81.89;101795.75;5071932;28;20036;-81
2022/07/04 02:06:30;;;;;;;14.30;4.45;;;;;;;11.75;81.75;101795.09;5070973;28;20035;-81
2022/07/04 02:14:24;;;;;;;12.13;4.20;;;;;;;11.68;82.22;101799.97;5068603;28;20120;-81
2022/07/04 02:16:49;;;;;;;16.13;4.75;;;;;;;11.67;81.87;101795.53;5093934;28;20032;-81
2022/07/04 02:19:15;;;;;;;12.60;4.45;;;;;;;11.61;82.06;101795.94;5069888;28;20032;-81
2022/07/04 02:21:40;;;;;;;12.80;4.20;;;;;;;11.58;82.30;101791.63;5078103;28;20598;-81
2022/07/04 02:24:06;;;;;;;13.10;4.03;;;;;;;11.57;82.38;101792.59;5075622;28;20033;-81
2022/07/04 02:26:31;;;;;;;13.38;4.20;;;;;;;11.59;82.42;101793.34;5070575;28;20028;-81
2022/07/04 02:28:57;;;;;;;17.33;5.07;;;;;;;11.57;82.68;101806.03;5078876;28;20370;-81
2022/07/04 02:31:22;;;;;;;16.85;4.47;;;;;;;11.50;83.07;101802.84;5071699;28;20024;-81
2022/07/04 02:33:48;;;;;;;14.32;4.68;;;;;;;11.53;83.00;101808.03;5066430;28;20446;-81
2022/07/04 02:36:13;;;;;;;12.35;4.28;;;;;;;11.51;83.13;101817.19;5077516;28;20118;-81
2022/07/04 02:38:38;;;;;;;13.38;4.32;;;;;;;11.47;83.27;101819.19;5074035;28;20028;-81
2022/07/04 02:41:04;;;;;;;12.57;4.20;;;;;;;11.46;83.36;101809.38;5075553;28;20055;-81
2022/07/04 02:43:29;;;;;;;19.67;4.78;;;;;;;11.42;83.35;101813.25;5072206;28;20115;-81
2022/07/04 02:45:54;;;;;;;12.95;4.22;;;;;;;11.41;82.87;101814.19;5078646;28;20165;-81
2022/07/04 02:48:20;;;;;;;15.07;4.85;;;;;;;11.41;83.05;101813.34;5069141;28;20028;-81
2022/07/04 02:50:45;;;;;;;15.02;4.93;;;;;;;11.38;83.30;101814.38;5076812;28;20056;-81
2022/07/04 02:53:10;;;;;;;11.52;3.95;;;;;;;11.40;83.22;101809.75;5080017;28;20024;-81
2022/07/04 02:55:35;;;;;;;15.05;4.65;;;;;;;11.38;83.28;101806.31;5072318;28;20032;-81
2022/07/04 02:58:01;;;;;;;11.75;4.15;;;;;;;11.36;83.26;101810.91;5078551;28;20032;-81
2022/07/04 03:00:26;;;;;;;15.35;4.90;;;;;;;11.37;83.49;101812.66;5068248;28;20036;-81
2022/07/04 03:02:53;;;;;;;12.20;4.07;;;;;;;11.38;83.47;101817.09;5074860;28;20021;-81
2022/07/04 03:05:19;;;;;;;15.45;4.93;;;;;;;11.34;83.35;101823.59;5069535;28;20032;-81
2022/07/04 03:07:44;;;;;;;15.20;5.05;;;;;;;11.32;83.46;101823.69;5067448;28;20114;-81
2022/07/04 03:10:09;;;;;;;15.15;4.65;;;;;;;11.28;84.03;101824.00;5072895;28;20021;-81
2022/07/04 03:12:35;;;;;;;15.05;5.05;;;;;;;11.24;83.97;101825.13;5067796;28;20068;-81
2022/07/04 03:15:00;;;;;;;18.65;4.70;;;;;;;11.26;84.18;101833.97;5070196;28;20119;-81
2022/07/04 03:17:26;;;;;;;15.32;4.45;;;;;;;11.25;84.37;101837.63;5077664;28;20033;-81
2022/07/04 03:19:51;;;;;;;15.52;4.72;;;;;;;11.26;84.42;101839.34;5076010;28;20036;-81
2022/07/04 03:22:17;;;;;;;15.85;5.03;;;;;;;11.30;84.01;101838.19;5066316;28;20028;-81
2022/07/04 03:24:42;;;;;;;12.93;4.35;;;;;;;11.37;84.35;101837.72;5069833;28;20501;-81
2022/07/04 03:27:08;;;;;;;16.45;4.65;;;;;;;11.41;84.79;101834.88;5068370;28;20031;-81
2022/07/04 03:29:33;;;;;;;17.50;5.28;;;;;;;11.44;84.94;101834.69;5075272;28;20472;-81
2022/07/04 03:31:59;;;;;;;15.05;4.88;;;;;;;11.48;85.04;101839.78;5062169;28;20064;-81
2022/07/04 03:34:24;;;;;;;18.35;6.07;;;;;;;11.51;84.51;101844.13;5073616;28;20038;-81
2022/07/04 03:36:50;;;;;;;14.45;4.32;;;;;;;11.54;84.75;101846.63;5069185;28;20112;-81
2022/07/04 03:39:15;;;;;;;14.82;4.72;;;;;;;11.60;84.75;101853.47;5067770;28;20385;-81
2022/07/04 03:41:40;;;;;;;17.08;4.97;;;;;;;11.66;84.87;101853.06;5073263;28;20462;-81
2022/07/04 03:44:06;;;;;;;17.08;5.10;;;;;;;11.69;85.04;101858.25;5068265;28;20236;-81
2022/07/04 03:46:31;;;;;;;16.40;5.05;;;;;;;11.75;84.53;101860.56;5070787;28;20035;-81
2022/07/04 03:48:56;;;;;;;16.38;5.32;;;;;;;11.78;84.56;101867.59;5067126;28;20384;-81
2022/07/04 03:51:22;;;;;;;19.55;5.68;;;;;;;11.81;84.45;101864.72;5072605;28;20027;-81
2022/07/04 03:53:48;;;;;;;17.17;5.22;;;;;;;11.86;84.61;101868.00;5067717;28;20032;-81
2022/07/04 03:56:14;;;;;;;17.85;5.45;;;;;;;11.87;84.16;101864.31;5076187;28;20024;-81
2022/07/04 03:58:42;;;;;;;13.80;5.00;;;;;;;11.87;84.33;101872.41;5079079;28;20029;-81
2022/07/04 04:01:08;;;;;;;16.10;5.53;;;;;;;11.86;84.38;101876.94;5074800;28;20039;-81
2022/07/04 04:06:17;;;;;;;14.43;5.32;;;;;;;11.88;84.39;101872.31;5080656;28;20062;-81
2022/07/04 04:08:42;;;;;;;13.25;5.00;;;;;;;11.92;84.48;101880.19;5081110;28;20012;-81
2022/07/04 04:11:07;;;;;;;15.75;5.82;;;;;;;11.94;84.35;101870.25;5071841;28;20083;-81
2022/07/04 04:13:33;;;;;;;14.98;5.07;;;;;;;11.95;84.60;101862.06;5073378;28;20052;-81
2022/07/04 04:15:58;;;;;;;14.93;5.32;;;;;;;11.95;84.52;101870.16;5070464;28;20090;-81
2022/07/04 04:18:25;;;;;;;17.20;5.20;;;;;;;11.96;84.13;101869.19;5064461;28;20139;-81
2022/07/04 04:20:50;;;;;;;20.90;6.18;;;;;;;12.02;84.88;101870.59;5066034;28;20669;-81
2022/07/04 04:23:15;;;;;;;20.42;5.82;;;;;;;12.05;84.67;101878.53;5074443;28;20052;-81
2022/07/04 04:25:41;;;;;;;18.70;6.03;;;;;;;12.09;84.79;101885.44;5069504;28;20389;-81
2022/07/04 04:28:06;;;;;;;17.80;6.35;;;;;;;12.16;84.64;101894.00;5085924;28;20024;-81
2022/07/04 04:30:31;;;;;;;19.08;5.97;;;;;;;12.22;84.72;101893.59;5089519;28;20115;-81
2022/07/04 04:32:57;;;;;;;16.27;6.28;;;;;;;12.22;84.56;101886.38;5074244;28;20028;-81
2022/07/04 04:35:22;;;;;;;18.42;5.65;;;;;;;12.29;84.78;101888.69;5072866;28;20020;-81
2022/07/04 04:37:47;;;;;;;16.45;5.70;;;;;;;12.35;84.91;101896.38;5068554;28;20364;-81
2022/07/04 04:40:13;;;;;;;19.15;6.75;;;;;;;12.44;84.71;101897.63;5070936;28;20027;-81
2022/07/04 04:42:38;;;;;;;17.33;5.82;;;;;;;12.50;84.77;101886.44;5088506;28;20028;-81
2022/07/04 04:45:04;;;;;;;17.33;5.30;;;;;;;12.57;84.78;101885.94;5070868;28;20619;-81
2022/07/04 04:47:30;;;;;;;17.88;5.65;;;;;;;12.65;84.82;101884.56;5078802;28;20103;-81
2022/07/04 04:49:55;;;;;;;18.10;5.55;;;;;;;12.73;84.82;101876.84;5070407;28;20021;-82
2022/07/04 04:52:20;;;;;;;13.77;5.25;;;;;;;12.79;84.75;101879.13;5078042;28;20032;-81
2022/07/04 04:54:46;;;;;;;18.25;5.03;;;;;;;12.82;84.36;101876.22;5071724;28;20024;-81
2022/07/04 04:57:11;;;;;;;15.90;5.45;;;;;;;12.90;85.00;101873.91;5070829;28;20734;-81
2022/07/04 04:59:36;;;;;;;17.55;5.47;;;;;;;12.95;84.78;101876.28;5069749;28;20033;-81
2022/07/04 05:02:02;;;;;;;14.77;5.68;;;;;;;12.98;85.16;101872.53;5075749;28;20039;-81
2022/07/04 05:04:27;;;;;;;17.02;5.80;;;;;;;13.07;85.17;101877.28;5072825;28;20047;-81
2022/07/04 05:06:53;;;;;;;18.42;6.25;;;;;;;13.14;84.99;101872.34;5077018;28;20028;-81
2022/07/04 05:09:19;;;;;;;19.88;6.15;;;;;;;13.23;85.07;101872.56;5078637;28;20032;-81
2022/07/04 05:11:45;;;;;;;16.70;5.60;;;;;;;13.25;84.90;101870.66;5075938;28;20051;-81
2022/07/04 05:14:10;;;;;;;19.10;5.88;;;;;;;13.33;85.06;101864.72;5070543;28;20109;-81
2022/07/04 05:16:35;;;;;;;17.65;6.05;;;;;;;13.40;85.38;101870.59;5077169;28;20157;-81
2022/07/04 05:19:01;;;;;;;19.15;6.68;;;;;;;13.43;84.72;101860.44;5076445;28;20511;-81
2022/07/04 05:21:28;;;;;;;15.27;5.85;;;;;;;13.48;85.40;101872.75;5074198;28;20031;-82
2022/07/04 05:23:54;;;;;;;17.60;6.60;;;;;;;13.57;85.63;101870.31;5073930;28;20506;-81
2022/07/04 05:26:19;;;;;;;17.33;6.32;;;;;;;13.60;84.92;101867.38;5064746;28;20027;-82
2022/07/04 05:28:44;;;;;;;19.10;5.90;;;;;;;13.67;85.06;101866.94;5076067;28;20025;-82
2022/07/04 05:31:10;;;;;;;17.33;6.20;;;;;;;13.76;85.24;101863.59;5078621;28;20162;-82
2022/07/04 05:33:35;;;;;;;18.50;6.55;;;;;;;13.84;84.93;101868.47;5066573;28;20054;-82
2022/07/04 05:36:00;;;;;;;17.85;6.65;;;;;;;13.89;85.51;101879.81;5069735;28;20028;-82
2022/07/04 05:38:26;;;;;;;17.05;5.60;;;;;;;13.93;84.27;101884.88;5072896;28;20115;-82
2022/07/04 05:40:51;;;;;;;17.30;6.25;;;;;;;14.01;84.49;101881.63;5071797;28;20048;-82
2022/07/04 05:43:16;;;;;;;17.70;6.63;;;;;;;14.09;84.06;101891.91;5072773;28;20424;-82
2022/07/04 05:45:41;;;;;;;17.63;5.75;;;;;;;14.15;84.86;101877.94;5077405;28;20051;-82
2022/07/04 05:48:07;;;;;;;20.48;6.15;;;;;;;14.19;84.49;101887.56;5065985;28;20016;-81
2022/07/04 05:50:32;;;;;;;14.98;5.85;;;;;;;14.25;84.15;101884.41;5072751;28;20456;-82
2022/07/04 05:52:58;;;;;;;21.00;6.28;;;;;;;14.29;84.41;101885.91;5081130;28;20028;-82
2022/07/04 05:55:23;;;;;;;15.85;6.05;;;;;;;14.33;83.74;101884.72;5073941;28;20046;-82
2022/07/04 05:57:48;;;;;;;14.25;5.07;;;;;;;14.38;84.56;101883.50;5081795;28;20390;-82
2022/07/04 06:00:14;;;;;;;15.90;6.05;;;;;;;14.45;84.21;101896.50;5072010;28;20071;-82
2022/07/04 06:02:41;;;;;;;14.90;5.30;;;;;;;14.52;84.25;101902.28;5071983;28;20517;-82
2022/07/04 06:05:07;;;;;;;15.95;5.13;;;;;;;14.53;83.86;101901.31;5068998;28;20032;-82
2022/07/04 06:07:32;;;;;;;17.55;6.05;;;;;;;14.61;84.28;101898.03;5075162;28;20127;-82
2022/07/04 06:09:58;;;;;;;15.38;5.78;;;;;;;14.67;84.45;101903.03;5069981;28;20021;-82
2022/07/04 06:12:23;;;;;;;17.38;5.25;;;;;;;14.74;83.84;101898.91;5059754;28;20509;-82
2022/07/04 06:14:48;;;;;;;17.77;6.53;;;;;;;14.83;83.35;101891.94;5078352;28;20059;-82
2022/07/04 06:17:14;;;;;;;17.88;5.60;;;;;;;14.92;82.51;101893.97;5073768;28;20110;-82
2022/07/04 06:19:39;;;;;;;13.70;5.38;;;;;;;15.02;83.19;101894.13;5068088;28;20128;-82
2022/07/04 06:22:04;;;;;;;20.45;6.07;;;;;;;15.10;82.79;101891.72;5073368;28;20476;-82
2022/07/04 06:24:29;;;;;;;16.45;5.60;;;;;;;15.14;80.81;101895.03;5068071;28;20025;-83
2022/07/04 06:26:55;;;;;;;15.98;5.68;;;;;;;15.15;80.09;101900.38;5074528;28;20111;-82
2022/07/04 06:29:20;;;;;;;17.65;6.55;;;;;;;15.17;80.15;101897.53;5070621;28;20119;-83
2022/07/04 06:31:45;;;;;;;16.67;6.22;;;;;;;15.17;80.05;101897.53;5069452;28;20031;-82
2022/07/04 06:36:55;;;;;;;16.00;5.40;;;;;;;15.28;81.09;101902.97;5083775;28;20050;-82
2022/07/04 06:39:20;;;;;;;15.95;6.10;;;;;;;15.36;81.64;101892.44;5065850;28;20024;-82
2022/07/04 06:41:45;;;;;;;15.93;5.13;;;;;;;15.46;81.33;101895.28;5063521;28;20024;-83
2022/07/04 06:44:11;;;;;;;17.60;6.00;;;;;;;15.59;81.08;101903.31;5071319;28;20071;-83
2022/07/04 06:46:36;;;;;;;14.27;4.70;;;;;;;15.67;78.81;101906.28;5073578;28;20028;-83
2022/07/04 06:49:01;;;;;;;18.35;5.43;;;;;;;15.77;79.24;101900.16;5077594;28;20028;-83
2022/07/04 06:51:27;;;;;;;14.48;4.70;;;;;;;15.86;79.47;101905.75;5069702;28;20503;-83
2022/07/04 06:53:52;;;;;;;16.60;5.05;;;;;;;15.95;77.88;101901.44;5075308;28;20483;-83
2022/07/04 06:56:18;;;;;;;14.68;4.38;;;;;;;16.05;77.05;101904.28;5076450;28;20317;-83
2022/07/04 06:58:43;;;;;;;12.43;4.47;;;;;;;16.09;77.34;101905.75;5068546;28;20039;-83
2022/07/04 07:01:09;;;;;;;14.55;4.47;;;;;;;16.13;76.25;101895.53;5066856;28;20025;-83
2022/07/04 07:03:34;;;;;;;12.48;4.00;;;;;;;16.19;77.15;101895.03;5070878;28;20042;-83
2022/07/04 07:06:01;;;;;;;14.07;4.28;;;;;;;16.25;76.22;101878.25;5083336;28;20024;-83
2022/07/04 07:08:27;;;;;;;10.43;3.60;;;;;;;16.27;74.32;101881.72;5065094;28;20031;-83
2022/07/04 07:10:52;;;;;;;11.05;3.20;;;;;;;16.32;75.31;101881.34;5071226;28;20411;-83
2022/07/04 07:13:17;;;;;;;12.25;3.33;;;;;;;16.38;76.16;101889.88;5066687;28;20028;-83
2022/07/04 07:15:43;;;;;;;8.77;3.03;;;;;;;16.48;75.80;101880.97;5065060;28;20103;-83
2022/07/04 07:18:08;;;;;;;8.82;2.88;;;;;;;16.49;74.03;101883.53;5069673;28;20028;-83
2022/07/04 07:20:33;;;;;;;8.13;2.80;;;;;;;16.56;74.97;101886.59;5083050;28;20303;-81
2022/07/04 07:23:02;;;;;;;16.58;3.13;;;;;;;16.59;72.16;101883.66;5068913;28;20377;-84
2022/07/04 07:25:28;;;;;;;7.37;2.67;;;;;;;16.63;71.44;101882.41;5067502;28;20021;-83
2022/07/04 07:27:53;;;;;;;6.85;2.65;;;;;;;16.61;70.71;101892.53;5074714;28;20348;-83
2022/07/04 07:30:18;;;;;;;8.05;2.72;;;;;;;16.61;71.04;101900.66;5070901;28;20399;-84
2022/07/04 07:32:43;;;;;;;10.73;2.95;;;;;;;16.61;70.20;101906.09;5064414;28;20047;-83
2022/07/04 07:35:09;;;;;;;8.30;2.55;;;;;;;16.62;69.93;101910.53;5071636;28;20047;-82
2022/07/04 07:37:34;;;;;;;7.47;2.75;;;;;;;16.64;69.60;101896.84;5078676;28;20020;-83
2022/07/04 07:40:01;;;;;;;6.95;2.60;;;;;;;16.68;70.79;101909.19;5071974;28;20032;-83
2022/07/04 07:42:26;;;;;;;8.57;2.63;;;;;;;16.70;70.71;101905.31;5074550;28;20063;-83
2022/07/04 07:44:51;;;;;;;9.30;2.67;;;;;;;16.78;70.43;101904.72;5067858;28;20056;-83
2022/07/04 07:47:17;;;;;;;7.93;2.78;;;;;;;16.84;70.72;101897.88;5066140;28;20021;-83
2022/07/04 07:49:44;;;;;;;10.45;3.05;;;;;;;16.87;69.22;101884.97;5077277;28;20025;-83
2022/07/04 07:52:09;;;;;;;9.00;2.45;;;;;;;16.92;69.72;101888.13;5077131;28;20040;-83
2022/07/04 07:54:35;;;;;;;13.05;3.42;;;;;;;16.95;69.10;101881.59;5072689;28;20025;-82
2022/07/04 07:57:00;;;;;;;8.68;3.15;;;;;;;16.99;68.81;101879.50;5074331;28;20032;-83
2022/07/04 07:59:25;;;;;;;9.20;3.17;;;;;;;17.06;67.90;101878.00;5071179;28;20031;-83
2022/07/04 08:01:51;;;;;;;11.02;3.53;;;;;;;17.11;68.98;101873.03;5068398;28;20391;-84
2022/07/04 08:04:34;;;;;;;11.68;3.28;;;;;;;17.19;69.72;101880.50;5068661;28;20228;-82
2022/07/04 08:07:04;;;;;;;8.85;2.95;;;;;;;17.21;68.82;101873.97;5073055;28;20365;-83
2022/07/04 08:09:30;;;;;;;8.63;2.63;;;;;;;17.22;67.83;101877.53;5065873;28;20013;-82
2022/07/04 08:11:56;;;;;;;11.15;3.20;;;;;;;17.27;68.63;101883.44;5066275;28;20071;-80
2022/07/04 08:14:21;;;;;;;11.88;3.10;;;;;;;17.34;68.02;101876.50;5066981;28;20033;-83
2022/07/04 08:16:47;;;;;;;12.63;3.28;;;;;;;17.43;68.89;101872.97;5069362;28;20477;-83
2022/07/04 08:19:12;;;;;;;8.88;3.15;;;;;;;17.50;68.50;101873.31;5092762;28;20113;-84
2022/07/04 08:21:37;;;;;;;10.38;2.83;;;;;;;17.57;69.59;101884.50;5074799;28;20062;-83
2022/07/04 08:24:03;;;;;;;13.52;3.30;;;;;;;17.61;66.44;101885.97;5069881;28;20507;-83
2022/07/04 08:26:28;;;;;;;9.15;3.00;;;;;;;17.67;67.81;101890.84;5070407;28;20036;-82
2022/07/04 08:28:57;;;;;;;7.97;2.78;;;;;;;17.69;66.54;101897.03;5072271;28;20021;-83
2022/07/04 08:31:23;;;;;;;5.80;2.55;;;;;;;17.75;67.59;101896.50;5076827;28;20056;-84
2022/07/04 08:33:48;;;;;;;7.95;2.55;;;;;;;17.87;68.36;101904.59;5079825;28;20570;-82
2022/07/04 08:36:13;;;;;;;14.25;3.08;;;;;;;17.90;66.86;101893.47;5070700;28;20032;-83
2022/07/04 08:38:38;;;;;;;7.50;2.70;;;;;;;17.91;66.13;101901.50;5072948;28;20453;-83
2022/07/04 08:41:04;;;;;;;10.20;2.78;;;;;;;17.97;67.92;101897.38;5068405;28;20028;-83
2022/07/04 08:43:35;;;;;;;8.07;2.22;;;;;;;18.02;68.38;101895.09;5077494;28;20055;-83
2022/07/04 08:46:03;;;;;;;11.57;2.65;;;;;;;18.08;67.84;101902.75;5072780;28;20033;-83
2022/07/04 08:48:30;;;;;;;11.43;2.50;;;;;;;18.18;69.32;101897.31;5073604;28;20032;-80
2022/07/04 08:50:59;;;;;;;9.07;2.72;;;;;;;18.21;67.54;101901.63;5078099;28;20097;-80
2022/07/04 08:53:29;;;;;;;10.95;2.72;;;;;;;18.25;67.33;101897.66;5079611;28;20027;-80
2022/07/04 08:58:41;;;;;;;7.10;2.63;;;;;;;18.27;66.44;101901.06;5069827;28;20086;-80
2022/07/04 09:01:15;;;;;;;11.02;2.83;;;;;;;18.25;64.40;101903.09;5072004;28;20473;-80
2022/07/04 09:03:44;;;;;;;6.28;2.50;;;;;;;18.24;64.67;101904.06;5073135;28;20476;-80
2022/07/04 09:06:11;;;;;;;6.78;2.47;;;;;;;18.24;64.32;101899.47;5072887;28;20058;-80
2022/07/04 09:08:38;;;;;;;7.40;2.30;;;;;;;18.27;63.79;101898.34;5072927;28;20035;-80
2022/07/04 09:11:04;;;;;;;6.85;2.13;;;;;;;18.35;66.50;101904.00;5069006;28;20043;-80
2022/07/04 09:13:31;;;;;;;4.72;2.25;;;;;;;18.37;64.67;101893.81;5082511;28;20038;-80
2022/07/04 09:15:56;;;;;;;6.40;2.17;;;;;;;18.41;63.52;101892.53;5076656;28;20126;-81
2022/07/04 09:18:32;;;;;;;8.68;2.70;;;;;;;18.48;63.79;101888.25;5074766;28;20062;-80
2022/07/04 09:21:00;;;;;;;5.50;2.22;;;;;;;18.51;65.00;101893.44;5076550;28;20032;-80
2022/07/04 09:23:28;;;;;;;8.70;2.45;;;;;;;18.56;64.26;101895.72;5073347;28;20142;-80
2022/07/04 09:26:18;;;;;;;10.88;2.63;;;;;;;18.62;64.82;101894.31;5074352;28;20024;-80
2022/07/04 09:28:51;;;;;;;8.77;2.63;;;;;;;18.64;62.33;101892.31;5077422;28;20082;-80
2022/07/04 09:31:19;;;;;;;9.43;2.83;;;;;;;18.72;62.91;101888.91;5068373;28;20129;-80
2022/07/04 09:33:55;;;;;;;8.82;2.47;;;;;;;18.79;63.68;101896.34;5076349;28;20078;-80
2022/07/04 09:36:23;;;;;;;6.53;2.40;;;;;;;18.87;63.36;101892.94;5065266;28;20040;-81
2022/07/04 09:39:21;;;;;;;8.87;2.50;;;;;;;18.93;64.05;101899.69;5068320;28;20028;-80
2022/07/04 09:42:00;;;;;;;7.38;2.50;;;;;;;18.94;62.55;101888.66;5073279;28;20299;-80
2022/07/04 09:44:49;;;;;;;4.90;2.33;;;;;;;18.98;63.63;101886.53;5074228;28;20032;-80
2022/07/04 09:47:22;;;;;;;7.13;2.42;;;;;;;19.05;61.94;101887.69;5088592;28;20473;-80
2022/07/04 09:50:07;;;;;;;7.55;3.03;;;;;;;19.10;62.29;101890.81;5073805;28;20024;-80
2022/07/04 09:52:58;;;;;;;6.78;2.95;;;;;;;19.17;63.87;101891.97;5070660;28;20593;-81
2022/07/04 09:55:25;;;;;;;10.60;2.78;;;;;;;19.25;61.96;101891.25;5081927;28;20032;-81
2022/07/04 09:57:52;;;;;;;10.85;3.00;;;;;;;19.31;62.29;101896.13;5079380;28;20028;-81
2022/07/04 10:00:26;;;;;;;7.38;2.67;;;;;;;19.35;61.79;101896.69;5080182;28;20036;-80
2022/07/04 10:02:53;;;;;;;9.10;2.90;;;;;;;19.31;61.98;101895.25;5076755;28;20035;-82
2022/07/04 10:05:21;;;;;;;11.68;2.78;;;;;;;19.34;63.67;101892.25;5084910;28;20051;-81
2022/07/04 10:07:47;;;;;;;9.48;2.85;;;;;;;19.37;63.25;101894.69;5080465;28;20024;-80
2022/07/04 10:10:28;;;;;;;12.85;3.22;;;;;;;19.44;62.27;101890.38;5080942;28;20110;-81
2022/07/04 10:12:56;;;;;;;5.75;2.35;;;;;;;19.54;62.96;101895.81;5070923;28;20051;-81
2022/07/04 10:15:22;;;;;;;8.70;2.90;;;;;;;19.55;59.73;101886.63;5074505;28;20111;-80
2022/07/04 10:17:47;;;;;;;9.38;2.63;;;;;;;19.60;59.34;101883.47;5073372;28;20111;-81
2022/07/04 10:20:14;;;;;;;7.18;2.47;;;;;;;19.69;61.85;101882.56;5082205;28;20055;-80
2022/07/04 10:22:40;;;;;;;12.40;2.97;;;;;;;19.74;60.39;101883.00;5077630;28;20035;-80
2022/07/04 10:25:07;;;;;;;14.05;3.45;;;;;;;19.82;59.51;101885.88;5079456;28;20357;-79
2022/07/04 10:27:35;;;;;;;7.93;2.90;;;;;;;19.86;59.36;101881.00;5073757;28;20368;-80
2022/07/04 10:30:03;;;;;;;10.57;3.33;;;;;;;19.86;59.31;101868.19;5070685;28;20055;-80
2022/07/04 10:32:29;;;;;;;7.30;2.67;;;;;;;19.89;59.90;101876.09;5075298;28;20036;-81
2022/07/04 10:34:54;;;;;;;9.18;2.80;;;;;;;19.96;58.58;101861.88;5069637;28;20067;-80
2022/07/04 10:37:20;;;;;;;13.25;3.35;;;;;;;19.99;60.94;101877.94;5069025;28;20519;-80
2022/07/04 10:39:46;;;;;;;9.77;3.00;;;;;;;19.99;59.45;101872.47;5066629;28;20037;-81
2022/07/04 10:42:25;;;;;;;8.93;3.42;;;;;;;20.07;59.69;101864.38;5079651;28;20024;-79
2022/07/04 10:44:52;;;;;;;10.18;3.72;;;;;;;20.17;59.13;101864.34;5069938;28;20024;-81
2022/07/04 10:47:25;;;;;;;7.07;3.00;;;;;;;20.21;58.11;101857.59;5077174;28;20525;-81
2022/07/04 10:49:51;;;;;;;8.50;2.78;;;;;;;20.24;58.06;101858.13;5075420;28;20032;-81
2022/07/04 10:52:17;;;;;;;8.73;3.38;;;;;;;20.22;56.83;101857.44;5066515;28;20406;-80
2022/07/04 10:54:44;;;;;;;11.50;3.10;;;;;;;20.29;58.78;101851.38;5072641;28;20036;-82
2022/07/04 10:57:20;;;;;;;8.02;2.78;;;;;;;20.32;58.66;101845.59;5069888;28;20017;-80
2022/07/04 10:59:54;;;;;;;7.63;3.05;;;;;;;20.46;59.10;101847.81;5064877;28;20036;-81
2022/07/04 11:02:19;;;;;;;8.10;3.35;;;;;;;20.49;56.98;101850.22;5070878;28;20559;-81
2022/07/04 11:04:54;;;;;;;9.05;3.25;;;;;;;20.54;57.63;101847.91;5073734;28;20123;-81
2022/07/04 11:07:42;;;;;;;9.18;3.35;;;;;;;20.60;57.64;101846.41;5073909;28;20471;-81
2022/07/04 11:10:10;;;;;;;8.38;3.28;;;;;;;20.68;55.27;101852.00;5073226;28;20059;-80
2022/07/04 11:15:24;;;;;;;11.48;3.25;;;;;;;20.90;57.08;101845.22;5072073;28;20090;-79
2022/07/04 11:17:51;;;;;;;10.82;3.50;;;;;;;20.95;56.85;101850.22;5080139;28;20042;-80
2022/07/04 11:20:17;;;;;;;12.55;3.10;;;;;;;20.94;55.67;101843.06;5074948;28;20028;-81
2022/07/04 11:22:42;;;;;;;9.00;2.70;;;;;;;20.88;55.40;101847.25;5081179;28;20020;-80
2022/07/04 11:25:11;;;;;;;8.52;3.47;;;;;;;20.81;56.13;101851.63;5076333;28;20363;-81
2022/07/04 11:27:37;;;;;;;8.45;3.03;;;;;;;20.76;55.99;101845.75;5088191;28;20028;-81
2022/07/04 11:30:02;;;;;;;10.43;2.97;;;;;;;20.77;54.42;101850.22;5077809;28;20027;-81
2022/07/04 11:32:30;;;;;;;9.07;3.33;;;;;;;20.83;55.97;101838.66;5072829;28;20029;-79